createdAt,value
2022-09-03T00:00:03.275Z,100518
2022-09-03T00:00:53.331Z,100517
2022-09-03T00:01:52.111Z,100511
2022-09-03T00:02:54.685Z,100506
2022-09-03T00:03:51.795Z,100506
2022-09-03T00:04:51.428Z,100515
2022-09-03T00:05:49.053Z,100509
2022-09-03T00:06:52.018Z,100521
2022-09-03T00:07:59.187Z,100523
2022-09-03T00:08:47.879Z,100534
2022-09-03T00:09:51.730Z,100543
2022-09-03T00:10:57.271Z,100554
2022-09-03T00:11:59.500Z,100571
2022-09-03T00:12:48.122Z,100573
2022-09-03T00:13:53.376Z,100565
2022-09-03T00:14:52.588Z,100566
2022-09-03T00:15:45.641Z,100567
2022-09-03T00:16:47.845Z,100569
2022-09-03T00:17:49.205Z,100570
2022-09-03T00:18:50.124Z,100573
2022-09-03T00:19:55.626Z,100563
2022-09-03T00:20:52.892Z,100559
2022-09-03T00:21:49.863Z,100564
2022-09-03T00:22:50.794Z,100561
2022-09-03T00:23:49.444Z,100559
2022-09-03T00:24:46.913Z,100574
2022-09-03T00:25:48.160Z,100570
2022-09-03T00:26:52.233Z,100571
2022-09-03T00:28:47.779Z,100567
2022-09-03T00:29:52.438Z,100568
2022-09-03T00:30:47.691Z,100562
2022-09-03T00:31:50.481Z,100551
2022-09-03T00:32:49.316Z,100549
2022-09-03T00:33:48.571Z,100550
2022-09-03T00:34:51.480Z,100547
2022-09-03T00:35:51.834Z,100555
2022-09-03T00:36:46.993Z,100546
2022-09-03T00:37:45.889Z,100550
2022-09-03T00:38:46.417Z,100530
2022-09-03T00:39:45.595Z,100543
2022-09-03T00:41:03.640Z,100538
2022-09-03T00:42:06.894Z,100541
2022-09-03T00:42:59.172Z,100546
2022-09-03T00:43:54.510Z,100545
2022-09-03T00:45:01.053Z,100554
2022-09-03T00:45:52.650Z,100545
2022-09-03T00:46:57.813Z,100544
2022-09-03T00:47:59.729Z,100535
2022-09-03T00:48:59.845Z,100547
2022-09-03T00:49:54.473Z,100554
2022-09-03T00:50:51.412Z,100553
2022-09-03T00:51:52.316Z,100551
2022-09-03T00:52:55.477Z,100553
2022-09-03T00:55:58.979Z,100546
2022-09-03T00:56:55.829Z,100549
2022-09-03T00:58:01.785Z,100552
2022-09-03T00:59:03.546Z,100538
2022-09-03T00:59:59.525Z,100529
2022-09-03T01:00:46.139Z,100541
2022-09-03T01:02:00.031Z,100530
2022-09-03T01:03:02.290Z,100525
2022-09-03T01:04:00.850Z,100519
2022-09-03T01:04:59.388Z,100518
2022-09-03T01:05:56.543Z,100514
2022-09-03T01:06:54.953Z,100513
2022-09-03T01:07:58.800Z,100516
2022-09-03T01:09:00.039Z,100522
2022-09-03T01:09:59.782Z,100526
2022-09-03T01:11:01.571Z,100518
2022-09-03T01:12:01.844Z,100526
2022-09-03T01:12:58.286Z,100516
2022-09-03T01:13:53.940Z,100530
2022-09-03T01:15:00.442Z,100542
2022-09-03T01:15:49.072Z,100548
2022-09-03T01:16:54.653Z,100552
2022-09-03T01:18:03.508Z,100569
2022-09-03T01:18:56.484Z,100565
2022-09-03T01:20:04.213Z,100567
2022-09-03T01:20:55.218Z,100548
2022-09-03T01:22:05.468Z,100550
2022-09-03T01:23:03.552Z,100546
2022-09-03T01:24:07.563Z,100550
2022-09-03T01:24:59.020Z,100541
2022-09-03T01:25:55.969Z,100543
2022-09-03T01:26:56.997Z,100532
2022-09-03T01:28:03.313Z,100536
2022-09-03T01:28:56.731Z,100533
2022-09-03T01:29:55.718Z,100535
2022-09-03T01:30:50.672Z,100537
2022-09-03T01:31:52.968Z,100542
2022-09-03T01:32:54.599Z,100537
2022-09-03T01:33:53.431Z,100539
2022-09-03T01:34:56.548Z,100533
2022-09-03T01:35:49.476Z,100543
2022-09-03T01:36:50.598Z,100544
2022-09-03T01:37:53.130Z,100544
2022-09-03T01:38:57.483Z,100545
2022-09-03T01:39:54.881Z,100546
2022-09-03T01:40:51.613Z,100558
2022-09-03T01:42:07.393Z,100555
2022-09-03T01:42:50.059Z,100550
2022-09-03T01:45:06.519Z,100555
2022-09-03T01:45:52.490Z,100554
2022-09-03T01:46:46.963Z,100563
2022-09-03T01:48:53.580Z,100546
2022-09-03T01:49:52.242Z,100558
2022-09-03T01:50:58.045Z,100557
2022-09-03T01:51:45.700Z,100557
2022-09-03T01:52:55.699Z,100567
2022-09-03T01:53:55.197Z,100563
2022-09-03T01:55:02.836Z,100566
2022-09-03T01:56:01.799Z,100572
2022-09-03T01:56:58.155Z,100601
2022-09-03T01:57:56.412Z,100598
2022-09-03T01:59:01.169Z,100595
2022-09-03T01:59:52.163Z,100595
2022-09-03T02:00:50.349Z,100594
2022-09-03T02:01:59.041Z,100596
2022-09-03T02:02:48.288Z,100604
2022-09-03T02:03:50.939Z,100604
2022-09-03T02:05:47.126Z,100604
2022-09-03T02:06:46.521Z,100599
2022-09-03T02:07:47.883Z,100603
2022-09-03T02:08:45.412Z,100605
2022-09-03T02:09:45.498Z,100602
2022-09-03T02:10:49.868Z,100600
2022-09-03T02:11:50.616Z,100602
2022-09-03T02:12:53.681Z,100595
2022-09-03T02:13:51.325Z,100595
2022-09-03T02:14:45.911Z,100592
2022-09-03T02:15:49.049Z,100587
2022-09-03T02:16:46.438Z,100596
2022-09-03T02:17:49.900Z,100587
2022-09-03T02:18:49.766Z,100577
2022-09-03T02:19:45.683Z,100578
2022-09-03T02:20:48.117Z,100581
2022-09-03T02:21:51.347Z,100575
2022-09-03T02:22:45.424Z,100577
2022-09-03T02:23:45.598Z,100571
2022-09-03T02:24:46.006Z,100577
2022-09-03T02:25:50.873Z,100574
2022-09-03T02:26:46.995Z,100575
2022-09-03T02:27:46.319Z,100578
2022-09-03T02:28:46.238Z,100579
2022-09-03T02:29:46.028Z,100581
2022-09-03T02:30:46.011Z,100580
2022-09-03T02:31:46.062Z,100572
2022-09-03T02:32:45.441Z,100576
2022-09-03T02:33:46.890Z,100582
2022-09-03T02:34:45.613Z,100579
2022-09-03T02:35:46.578Z,100572
2022-09-03T02:36:48.287Z,100589
2022-09-03T02:37:45.394Z,100565
2022-09-03T02:38:46.372Z,100575
2022-09-03T02:39:45.838Z,100573
2022-09-03T02:40:45.915Z,100579
2022-09-03T02:41:45.427Z,100585
2022-09-03T02:42:47.338Z,100573
2022-09-03T02:43:52.703Z,100574
2022-09-03T02:44:51.237Z,100582
2022-09-03T02:45:48.633Z,100574
2022-09-03T02:46:49.542Z,100573
2022-09-03T02:47:48.526Z,100578
2022-09-03T02:48:45.441Z,100599
2022-09-03T02:49:46.965Z,100610
2022-09-03T02:50:45.365Z,100614
2022-09-03T02:51:45.945Z,100616
2022-09-03T02:52:45.436Z,100598
2022-09-03T02:53:45.929Z,100602
2022-09-03T02:54:46.093Z,100600
2022-09-03T02:55:45.460Z,100591
2022-09-03T02:56:48.431Z,100603
2022-09-03T02:57:45.367Z,100598
2022-09-03T02:58:45.435Z,100603
2022-09-03T02:59:45.924Z,100605
2022-09-03T03:00:45.536Z,100600
2022-09-03T03:01:46.513Z,100608
2022-09-03T03:02:47.200Z,100612
2022-09-03T03:03:45.457Z,100594
2022-09-03T03:04:45.484Z,100605
2022-09-03T03:06:47.830Z,100591
2022-09-03T03:07:45.370Z,100601
2022-09-03T03:09:45.873Z,100612
2022-09-03T03:10:46.213Z,100600
2022-09-03T03:13:47.877Z,100609
2022-09-03T03:14:45.404Z,100601
2022-09-03T03:15:48.026Z,100615
2022-09-03T03:16:45.754Z,100619
2022-09-03T03:17:45.363Z,100605
2022-09-03T03:18:46.842Z,100608
2022-09-03T03:20:45.664Z,100607
2022-09-03T03:21:46.391Z,100600
2022-09-03T03:22:45.638Z,100597
2022-09-03T03:23:46.385Z,100599
2022-09-03T03:24:45.497Z,100601
2022-09-03T03:25:45.608Z,100590
2022-09-03T03:26:45.409Z,100598
2022-09-03T03:27:45.410Z,100594
2022-09-03T03:28:46.996Z,100603
2022-09-03T03:29:45.419Z,100605
2022-09-03T03:30:47.794Z,100612
2022-09-03T03:31:45.473Z,100604
2022-09-03T03:32:45.368Z,100611
2022-09-03T03:33:45.644Z,100617
2022-09-03T03:34:46.383Z,100602
2022-09-03T03:35:45.378Z,100613
2022-09-03T03:36:45.354Z,100606
2022-09-03T03:37:45.332Z,100603
2022-09-03T03:38:46.037Z,100604
2022-09-03T03:39:45.379Z,100604
2022-09-03T03:40:45.328Z,100601
2022-09-03T03:41:45.358Z,100604
2022-09-03T03:43:50.165Z,100596
2022-09-03T03:44:45.444Z,100607
2022-09-03T03:45:45.422Z,100604
2022-09-03T03:46:45.577Z,100604
2022-09-03T03:47:45.398Z,100575
2022-09-03T03:48:48.037Z,100609
2022-09-03T03:49:45.424Z,100598
2022-09-03T03:50:45.350Z,100611
2022-09-03T03:51:45.324Z,100605
2022-09-03T03:52:45.634Z,100593
2022-09-03T03:54:45.322Z,100600
2022-09-03T03:55:54.517Z,100602
2022-09-03T03:56:46.769Z,100607
2022-09-03T03:57:45.402Z,100600
2022-09-03T04:00:45.372Z,100597
2022-09-03T04:01:45.408Z,100601
2022-09-03T04:02:45.679Z,100589
2022-09-03T04:03:46.137Z,100598
2022-09-03T04:04:45.379Z,100589
2022-09-03T04:05:54.724Z,100585
2022-09-03T04:06:45.404Z,100584
2022-09-03T04:07:45.581Z,100584
2022-09-03T04:08:47.479Z,100587
2022-09-03T04:09:45.423Z,100590
2022-09-03T04:10:45.418Z,100592
2022-09-03T04:12:45.325Z,100596
2022-09-03T04:13:46.963Z,100587
2022-09-03T04:14:45.365Z,100587
2022-09-03T04:15:45.756Z,100586
2022-09-03T04:16:47.119Z,100592
2022-09-03T04:17:45.373Z,100590
2022-09-03T04:18:45.861Z,100587
2022-09-03T04:19:48.927Z,100591
2022-09-03T04:20:45.852Z,100595
2022-09-03T04:21:45.603Z,100602
2022-09-03T04:22:46.529Z,100591
2022-09-03T04:23:46.711Z,100599
2022-09-03T04:24:45.277Z,100596
2022-09-03T04:25:45.341Z,100596
2022-09-03T04:26:45.374Z,100584
2022-09-03T04:27:45.325Z,100581
2022-09-03T04:28:45.803Z,100579
2022-09-03T04:29:45.339Z,100579
2022-09-03T04:30:45.328Z,100579
2022-09-03T04:31:54.801Z,100576
2022-09-03T04:32:54.698Z,100577
2022-09-03T04:33:45.403Z,100564
2022-09-03T04:34:45.303Z,100575
2022-09-03T04:35:45.709Z,100567
2022-09-03T04:36:48.836Z,100567
2022-09-03T04:37:45.327Z,100573
2022-09-03T04:38:47.286Z,100563
2022-09-03T04:39:45.332Z,100557
2022-09-03T04:41:45.623Z,100561
2022-09-03T04:42:45.323Z,100575
2022-09-03T04:43:51.276Z,100578
2022-09-03T04:44:45.285Z,100576
2022-09-03T04:45:45.348Z,100573
2022-09-03T04:46:47.966Z,100579
2022-09-03T04:47:54.749Z,100577
2022-09-03T04:48:48.147Z,100577
2022-09-03T04:49:45.298Z,100572
2022-09-03T04:52:45.300Z,100574
2022-09-03T04:53:47.369Z,100578
2022-09-03T04:54:45.289Z,100577
2022-09-03T04:55:45.296Z,100589
2022-09-03T04:56:45.347Z,100592
2022-09-03T04:57:45.333Z,100589
2022-09-03T04:58:46.118Z,100593
2022-09-03T04:59:47.506Z,100591
2022-09-03T05:00:45.406Z,100593
2022-09-03T05:01:45.316Z,100587
2022-09-03T05:02:49.417Z,100592
2022-09-03T05:03:46.258Z,100586
2022-09-03T05:04:45.279Z,100591
2022-09-03T05:05:54.132Z,100591
2022-09-03T05:06:45.520Z,100589
2022-09-03T05:07:45.733Z,100592
2022-09-03T05:09:45.265Z,100592
2022-09-03T05:10:45.277Z,100587
2022-09-03T05:13:49.215Z,100580
2022-09-03T05:14:45.336Z,100584
2022-09-03T05:18:47.016Z,100571
2022-09-03T05:20:45.339Z,100596
2022-09-03T05:21:45.268Z,100578
2022-09-03T05:22:45.267Z,100595
2022-09-03T05:23:47.279Z,100592
2022-09-03T05:24:45.396Z,100582
2022-09-03T05:25:55.132Z,100583
2022-09-03T05:26:45.280Z,100585
2022-09-03T05:27:46.335Z,100591
2022-09-03T05:28:46.053Z,100594
2022-09-03T05:32:45.592Z,100591
2022-09-03T05:33:48.124Z,100588
2022-09-03T05:34:45.338Z,100582
2022-09-03T05:35:45.626Z,100577
2022-09-03T05:36:49.230Z,100587
2022-09-03T05:37:45.562Z,100589
2022-09-03T05:38:46.184Z,100590
2022-09-03T05:40:45.306Z,100584
2022-09-03T05:41:45.291Z,100583
2022-09-03T05:42:45.246Z,100588
2022-09-03T05:46:45.372Z,100598
2022-09-03T05:48:45.269Z,100602
2022-09-03T05:49:45.217Z,100605
2022-09-03T05:50:45.215Z,100597
2022-09-03T05:51:46.560Z,100602
2022-09-03T05:52:45.234Z,100598
2022-09-03T05:53:47.749Z,100602
2022-09-03T05:54:45.222Z,100592
2022-09-03T05:55:45.221Z,100599
2022-09-03T05:56:45.320Z,100602
2022-09-03T05:57:46.296Z,100596
2022-09-03T05:58:48.304Z,100601
2022-09-03T05:59:45.236Z,100601
2022-09-03T06:00:45.266Z,100605
2022-09-03T06:02:50.684Z,100608
2022-09-03T06:03:47.071Z,100608
2022-09-03T06:04:45.417Z,100601
2022-09-03T06:05:52.396Z,100606
2022-09-03T06:06:47.120Z,100597
2022-09-03T06:07:46.467Z,100597
2022-09-03T06:08:45.284Z,100593
2022-09-03T06:09:45.615Z,100591
2022-09-03T06:10:45.290Z,100603
2022-09-03T06:11:46.307Z,100596
2022-09-03T06:12:49.839Z,100595
2022-09-03T06:13:47.649Z,100599
2022-09-03T06:14:45.202Z,100600
2022-09-03T06:15:46.827Z,100599
2022-09-03T06:16:50.104Z,100599
2022-09-03T06:17:45.302Z,100598
2022-09-03T06:18:45.268Z,100601
2022-09-03T06:19:45.264Z,100601
2022-09-03T06:20:54.117Z,100605
2022-09-03T06:22:53.619Z,100608
2022-09-03T06:23:49.729Z,100616
2022-09-03T06:24:45.301Z,100619
2022-09-03T06:25:45.241Z,100627
2022-09-03T06:26:45.963Z,100629
2022-09-03T06:27:45.881Z,100651
2022-09-03T06:28:45.589Z,100649
2022-09-03T06:29:45.211Z,100633
2022-09-03T06:30:45.210Z,100637
2022-09-03T06:31:45.231Z,100636
2022-09-03T06:32:46.849Z,100637
2022-09-03T06:33:47.367Z,100643
2022-09-03T06:34:45.211Z,100643
2022-09-03T06:35:46.326Z,100638
2022-09-03T06:36:46.020Z,100639
2022-09-03T06:37:45.233Z,100644
2022-09-03T06:38:46.807Z,100645
2022-09-03T06:39:45.277Z,100644
2022-09-03T06:40:45.834Z,100640
2022-09-03T06:41:46.063Z,100629
2022-09-03T06:42:45.988Z,100635
2022-09-03T06:43:49.690Z,100631
2022-09-03T06:44:45.501Z,100634
2022-09-03T06:45:53.340Z,100635
2022-09-03T06:48:46.193Z,100633
2022-09-03T06:49:45.257Z,100633
2022-09-03T06:50:45.181Z,100624
2022-09-03T06:51:45.337Z,100629
2022-09-03T06:52:45.236Z,100627
2022-09-03T06:53:47.654Z,100629
2022-09-03T06:54:45.224Z,100623
2022-09-03T06:55:45.679Z,100624
2022-09-03T06:56:45.224Z,100643
2022-09-03T06:57:45.473Z,100676
2022-09-03T06:58:47.831Z,100665
2022-09-03T06:59:45.193Z,100661
2022-09-03T07:00:45.570Z,100653
2022-09-03T07:01:46.348Z,100628
2022-09-03T07:02:45.305Z,100647
2022-09-03T07:03:46.268Z,100637
2022-09-03T07:04:45.154Z,100645
2022-09-03T07:05:45.399Z,100641
2022-09-03T07:06:46.680Z,100632
2022-09-03T07:07:45.818Z,100634
2022-09-03T07:08:46.471Z,100629
2022-09-03T07:09:48.209Z,100625
2022-09-03T07:10:47.786Z,100623
2022-09-03T07:11:48.382Z,100630
2022-09-03T07:12:45.171Z,100634
2022-09-03T07:13:47.868Z,100632
2022-09-03T07:14:45.182Z,100627
2022-09-03T07:15:45.259Z,100621
2022-09-03T07:16:46.263Z,100610
2022-09-03T07:17:45.174Z,100607
2022-09-03T07:18:45.877Z,100600
2022-09-03T07:19:45.200Z,100603
2022-09-03T07:20:45.185Z,100607
2022-09-03T07:21:49.186Z,100622
2022-09-03T07:22:45.190Z,100637
2022-09-03T07:23:45.788Z,100653
2022-09-03T07:24:47.065Z,100652
2022-09-03T07:25:45.244Z,100666
2022-09-03T07:26:46.617Z,100670
2022-09-03T07:27:45.218Z,100663
2022-09-03T07:28:46.912Z,100668
2022-09-03T07:29:45.153Z,100654
2022-09-03T07:30:45.161Z,100648
2022-09-03T07:31:45.470Z,100640
2022-09-03T07:32:46.664Z,100642
2022-09-03T07:33:45.558Z,100652
2022-09-03T07:34:45.380Z,100652
2022-09-03T07:37:45.234Z,100684
2022-09-03T07:38:45.950Z,100682
2022-09-03T07:39:47.038Z,100680
2022-09-03T07:40:47.170Z,100672
2022-09-03T07:41:46.920Z,100669
2022-09-03T07:42:45.135Z,100658
2022-09-03T07:43:50.744Z,100626
2022-09-03T07:44:45.181Z,100605
2022-09-03T07:45:51.993Z,100604
2022-09-03T07:46:46.333Z,100615
2022-09-03T07:47:50.067Z,100629
2022-09-03T07:48:47.381Z,100631
2022-09-03T07:49:45.302Z,100618
2022-09-03T07:50:45.195Z,100626
2022-09-03T07:51:46.702Z,100664
2022-09-03T07:52:45.143Z,100649
2022-09-03T07:53:45.964Z,100642
2022-09-03T07:54:45.141Z,100637
2022-09-03T07:55:45.658Z,100641
2022-09-03T07:56:45.245Z,100631
2022-09-03T07:57:45.158Z,100635
2022-09-03T07:58:45.216Z,100652
2022-09-03T07:59:45.195Z,100658
2022-09-03T08:00:45.286Z,100655
2022-09-03T08:01:45.244Z,100659
2022-09-03T08:02:46.415Z,100674
2022-09-03T08:03:47.232Z,100665
2022-09-03T08:04:45.601Z,100654
2022-09-03T08:05:45.327Z,100645
2022-09-03T08:06:45.180Z,100650
2022-09-03T08:07:45.134Z,100649
2022-09-03T08:09:45.214Z,100641
2022-09-03T08:10:45.236Z,100639
2022-09-03T08:11:45.156Z,100648
2022-09-03T08:13:48.664Z,100652
2022-09-03T08:15:45.189Z,100628
2022-09-03T08:17:45.818Z,100642
2022-09-03T08:18:47.661Z,100634
2022-09-03T08:19:46.285Z,100645
2022-09-03T08:22:45.190Z,100656
2022-09-03T08:23:48.488Z,100658
2022-09-03T08:24:45.548Z,100641
2022-09-03T08:26:50.382Z,100613
2022-09-03T08:27:45.099Z,100600
2022-09-03T08:28:45.731Z,100594
2022-09-03T08:29:46.949Z,100598
2022-09-03T08:30:45.084Z,100602
2022-09-03T08:31:45.261Z,100596
2022-09-03T08:32:45.157Z,100603
2022-09-03T08:33:48.500Z,100605
2022-09-03T08:34:45.384Z,100603
2022-09-03T08:35:54.946Z,100608
2022-09-03T08:36:46.689Z,100612
2022-09-03T08:37:45.114Z,100613
2022-09-03T08:38:47.014Z,100615
2022-09-03T08:39:46.034Z,100594
2022-09-03T08:40:45.853Z,100596
2022-09-03T08:41:57.778Z,100592
2022-09-03T08:44:03.030Z,100585
2022-09-03T08:44:48.300Z,100590
2022-09-03T08:45:46.025Z,100586
2022-09-03T08:47:48.295Z,100578
2022-09-03T08:48:47.627Z,100577
2022-09-03T08:50:50.233Z,100554
2022-09-03T08:51:49.177Z,100553
2022-09-03T08:52:50.730Z,100551
2022-09-03T08:53:50.954Z,100549
2022-09-03T08:54:45.962Z,100547
2022-09-03T08:55:50.747Z,100551
2022-09-03T08:56:45.377Z,100552
2022-09-03T08:57:49.685Z,100566
2022-09-03T08:58:45.170Z,100596
2022-09-03T08:59:45.989Z,100605
2022-09-03T09:00:54.193Z,100607
2022-09-03T09:02:03.378Z,100612
2022-09-03T09:02:59.408Z,100620
2022-09-03T09:03:48.011Z,100623
2022-09-03T09:04:53.789Z,100624
2022-09-03T09:05:55.821Z,100618
2022-09-03T09:06:51.077Z,100603
2022-09-03T09:07:59.794Z,100595
2022-09-03T09:08:59.500Z,100596
2022-09-03T09:09:50.006Z,100586
2022-09-03T09:10:49.801Z,100583
2022-09-03T09:11:55.696Z,100568
2022-09-03T09:12:57.074Z,100560
2022-09-03T09:13:57.116Z,100574
2022-09-03T09:14:57.786Z,100574
2022-09-03T09:16:49.113Z,100594
2022-09-03T09:18:02.189Z,100596
2022-09-03T09:19:01.343Z,100606
2022-09-03T09:19:49.582Z,100606
2022-09-03T09:20:51.689Z,100597
2022-09-03T09:21:53.374Z,100594
2022-09-03T09:22:48.582Z,100602
2022-09-03T09:23:49.053Z,100598
2022-09-03T09:24:47.320Z,100594
2022-09-03T09:25:50.224Z,100586
2022-09-03T09:26:46.118Z,100590
2022-09-03T09:27:52.663Z,100587
2022-09-03T09:28:48.068Z,100591
2022-09-03T09:29:49.632Z,100591
2022-09-03T09:30:50.327Z,100594
2022-09-03T09:36:51.355Z,100568
2022-09-03T09:39:56.756Z,100614
2022-09-03T09:41:54.823Z,100646
2022-09-03T09:42:45.063Z,100636
2022-09-03T09:43:47.999Z,100658
2022-09-03T09:44:45.084Z,100649
2022-09-03T09:45:48.483Z,100644
2022-09-03T09:46:45.156Z,100625
2022-09-03T09:47:45.276Z,100604
2022-09-03T09:48:58.365Z,100599
2022-09-03T09:49:54.634Z,100605
2022-09-03T09:50:46.072Z,100590
2022-09-03T09:51:45.554Z,100594
2022-09-03T09:52:46.001Z,100595
2022-09-03T09:53:45.296Z,100595
2022-09-03T09:54:46.480Z,100586
2022-09-03T09:55:56.369Z,100587
2022-09-03T09:56:45.280Z,100588
2022-09-03T09:57:45.414Z,100585
2022-09-03T09:58:45.056Z,100607
2022-09-03T09:59:46.402Z,100596
2022-09-03T10:00:59.855Z,100615
2022-09-03T10:01:46.518Z,100629
2022-09-03T10:02:48.968Z,100623
2022-09-03T10:03:59.626Z,100627
2022-09-03T10:04:45.858Z,100622
2022-09-03T10:05:55.171Z,100629
2022-09-03T10:06:54.624Z,100628
2022-09-03T10:07:58.535Z,100625
2022-09-03T10:09:45.055Z,100622
2022-09-03T10:10:50.338Z,100598
2022-09-03T10:11:51.021Z,100589
2022-09-03T10:12:47.162Z,100582
2022-09-03T10:13:48.694Z,100586
2022-09-03T10:14:49.020Z,100573
2022-09-03T10:15:52.696Z,100576
2022-09-03T10:16:51.960Z,100572
2022-09-03T10:17:55.884Z,100563
2022-09-03T10:18:48.205Z,100552
2022-09-03T10:20:08.730Z,100558
2022-09-03T10:20:56.111Z,100559
2022-09-03T10:21:48.620Z,100551
2022-09-03T10:22:57.455Z,100550
2022-09-03T10:23:57.943Z,100542
2022-09-03T10:25:00.553Z,100554
2022-09-03T10:26:07.402Z,100549
2022-09-03T10:26:46.189Z,100549
2022-09-03T10:27:46.295Z,100548
2022-09-03T10:31:03.199Z,100525
2022-09-03T10:31:55.355Z,100529
2022-09-03T10:32:50.897Z,100530
2022-09-03T10:35:52.894Z,100519
2022-09-03T10:36:49.502Z,100523
2022-09-03T10:37:52.494Z,100528
2022-09-03T10:38:51.040Z,100522
2022-09-03T10:39:52.473Z,100522
2022-09-03T10:40:52.745Z,100523
2022-09-03T10:42:03.687Z,100526
2022-09-03T10:42:48.102Z,100528
2022-09-03T10:44:03.304Z,100528
2022-09-03T10:45:01.976Z,100537
2022-09-03T10:46:01.543Z,100536
2022-09-03T10:46:53.590Z,100534
2022-09-03T10:47:53.762Z,100537
2022-09-03T10:49:01.109Z,100532
2022-09-03T10:49:57.672Z,100522
2022-09-03T10:50:57.952Z,100536
2022-09-03T10:51:49.798Z,100533
2022-09-03T10:52:53.826Z,100536
2022-09-03T10:53:54.797Z,100538
2022-09-03T10:55:02.698Z,100545
2022-09-03T10:55:57.371Z,100542
2022-09-03T10:56:58.390Z,100544
2022-09-03T10:57:55.803Z,100535
2022-09-03T10:59:00.960Z,100543
2022-09-03T11:00:04.829Z,100540
2022-09-03T11:00:53.992Z,100533
2022-09-03T11:01:53.888Z,100532
2022-09-03T11:03:03.141Z,100530
2022-09-03T11:03:57.146Z,100535
2022-09-03T11:04:57.032Z,100533
2022-09-03T11:05:57.006Z,100523
2022-09-03T11:06:55.518Z,100528
2022-09-03T11:07:54.282Z,100519
2022-09-03T11:08:52.249Z,100519
2022-09-03T11:09:57.536Z,100521
2022-09-03T11:10:50.612Z,100520
2022-09-03T11:11:50.154Z,100516
2022-09-03T11:12:56.491Z,100509
2022-09-03T11:13:54.169Z,100510
2022-09-03T11:14:51.262Z,100502
2022-09-03T11:19:54.734Z,100501
2022-09-03T11:20:45.614Z,100502
2022-09-03T11:21:46.225Z,100492
2022-09-03T11:22:47.221Z,100490
2022-09-03T11:23:48.673Z,100492
2022-09-03T11:24:51.137Z,100494
2022-09-03T11:25:53.377Z,100507
2022-09-03T11:26:48.524Z,100517
2022-09-03T11:28:00.556Z,100506
2022-09-03T11:28:52.557Z,100527
2022-09-03T11:31:00.491Z,100522
2022-09-03T11:31:53.057Z,100533
2022-09-03T11:32:56.005Z,100534
2022-09-03T11:33:50.232Z,100513
2022-09-03T11:34:50.754Z,100507
2022-09-03T11:36:47.985Z,100501
2022-09-03T11:38:45.005Z,100503
2022-09-03T11:39:45.791Z,100500
2022-09-03T11:40:58.641Z,100487
2022-09-03T11:45:45.131Z,100472
2022-09-03T11:46:54.962Z,100473
2022-09-03T11:47:47.068Z,100466
2022-09-03T11:48:47.466Z,100464
2022-09-03T11:49:52.249Z,100464
2022-09-03T11:50:54.117Z,100458
2022-09-03T11:51:45.503Z,100458
2022-09-03T11:54:46.410Z,100462
2022-09-03T11:56:03.908Z,100456
2022-09-03T11:58:45.463Z,100438
2022-09-03T11:59:45.754Z,100443
2022-09-03T12:01:53.354Z,100430
2022-09-03T12:02:56.746Z,100427
2022-09-03T12:03:46.226Z,100417
2022-09-03T12:04:53.011Z,100416
2022-09-03T12:08:57.679Z,100417
2022-09-03T12:09:59.449Z,100419
2022-09-03T12:11:51.405Z,100404
2022-09-03T12:12:49.484Z,100398
2022-09-03T12:16:01.969Z,100395
2022-09-03T12:18:10.505Z,100391
2022-09-03T12:18:45.844Z,100389
2022-09-03T12:20:46.080Z,100376
2022-09-03T12:21:50.636Z,100377
2022-09-03T12:22:44.970Z,100379
2022-09-03T12:28:49.121Z,100369
2022-09-03T12:29:56.823Z,100373
2022-09-03T12:31:50.474Z,100372
2022-09-03T12:33:45.519Z,100374
2022-09-03T12:36:00.321Z,100371
2022-09-03T12:36:47.842Z,100370
2022-09-03T12:38:08.795Z,100367
2022-09-03T12:39:10.398Z,100365
2022-09-03T12:40:08.274Z,100366
2022-09-03T12:47:45.329Z,100356
2022-09-03T12:49:46.752Z,100349
2022-09-03T12:50:49.400Z,100343
2022-09-03T12:51:48.535Z,100335
2022-09-03T12:52:48.943Z,100336
2022-09-03T12:53:45.866Z,100335
2022-09-03T12:54:52.896Z,100323
2022-09-03T12:55:49.876Z,100325
2022-09-03T12:56:49.679Z,100333
2022-09-03T12:57:49.377Z,100322
2022-09-03T12:58:57.072Z,100316
2022-09-03T12:59:45.028Z,100319
2022-09-03T13:00:59.922Z,100320
2022-09-03T13:01:51.386Z,100313
2022-09-03T13:02:58.361Z,100311
2022-09-03T13:04:46.643Z,100323
2022-09-03T13:05:49.588Z,100321
2022-09-03T13:06:50.403Z,100314
2022-09-03T13:07:51.796Z,100314
2022-09-03T13:10:46.118Z,100316
2022-09-03T13:12:53.175Z,100321
2022-09-03T13:14:02.914Z,100320
2022-09-03T13:14:47.795Z,100325
2022-09-03T13:16:01.067Z,100321
2022-09-03T13:16:57.586Z,100322
2022-09-03T13:17:59.702Z,100316
2022-09-03T13:18:50.756Z,100314
2022-09-03T13:19:53.642Z,100306
2022-09-03T13:20:52.280Z,100301
2022-09-03T13:21:49.796Z,100297
2022-09-03T13:22:58.550Z,100298
2022-09-03T13:23:53.612Z,100299
2022-09-03T13:25:02.972Z,100297
2022-09-03T13:26:05.291Z,100300
2022-09-03T13:27:00.928Z,100300
2022-09-03T13:27:57.465Z,100303
2022-09-03T13:28:52.682Z,100300
2022-09-03T13:29:55.179Z,100294
2022-09-03T13:30:59.129Z,100296
2022-09-03T13:31:51.229Z,100288
2022-09-03T13:32:52.642Z,100293
2022-09-03T13:33:51.522Z,100293
2022-09-03T13:34:53.339Z,100296
2022-09-03T13:35:52.021Z,100300
2022-09-03T13:36:52.636Z,100290
2022-09-03T13:37:49.882Z,100288
2022-09-03T13:42:56.940Z,100277
2022-09-03T13:44:53.165Z,100281
2022-09-03T13:46:48.034Z,100272
2022-09-03T13:48:55.743Z,100267
2022-09-03T13:49:59.373Z,100261
2022-09-03T13:51:52.950Z,100265
2022-09-03T13:52:59.368Z,100267
2022-09-03T13:53:59.035Z,100278
2022-09-03T13:54:51.948Z,100260
2022-09-03T13:55:48.364Z,100268
2022-09-03T13:56:58.487Z,100264
2022-09-03T13:57:58.332Z,100247
2022-09-03T13:58:52.244Z,100244
2022-09-03T13:59:54.417Z,100244
2022-09-03T14:00:50.291Z,100242
2022-09-03T14:02:03.060Z,100251
2022-09-03T14:02:53.867Z,100248
2022-09-03T14:03:51.090Z,100249
2022-09-03T14:05:00.031Z,100245
2022-09-03T14:06:02.152Z,100247
2022-09-03T14:06:54.565Z,100249
2022-09-03T14:07:55.505Z,100248
2022-09-03T14:10:01.584Z,100246
2022-09-03T14:11:55.734Z,100239
2022-09-03T14:12:49.863Z,100233
2022-09-03T14:13:59.458Z,100225
2022-09-03T14:14:54.348Z,100218
2022-09-03T14:15:53.089Z,100211
2022-09-03T14:16:55.444Z,100216
2022-09-03T14:17:57.084Z,100208
2022-09-03T14:18:48.613Z,100202
2022-09-03T14:19:48.146Z,100200
2022-09-03T14:20:55.345Z,100201
2022-09-03T14:21:46.556Z,100204
2022-09-03T14:22:50.143Z,100198
2022-09-03T14:23:47.328Z,100200
2022-09-03T14:24:57.821Z,100197
2022-09-03T14:25:55.169Z,100194